Main page
METAR-TAF:

METAR-TAF

Airports :

Lengpui Airport

Aizawl, India

latitude: 23-50-18N, longitude: 92-37-13E, elevation: 405 m

Current weather observation

The report was made 6 hours and 59 minutes ago, at 11:00 UTC
Wind 3 kt from the Northwest
Temperature 21°C
Humidity 73%
Pressure 1015 hPa
Visibility: 3000 m
haze

METAR: VELP 091100Z 32003KT 3000 HZ 21/16 Q1015 NOSIG

Time: 23:29 (17:59 UTC)

Forecast

The report was made 9 hours and 59 minutes ago, at 08:00 UTC
Forecast valid from 09 at 09 UTC to 09 at 18 UTC
Wind 3 kt from the North/Northeast
Visibility: 5000 m
Scattered clouds at a height of 2000 ft
haze
Becoming
from 09 at 12 UTC to 09 at 15 UTC
Visibility: 3000 m
Scattered clouds at a height of 10000 ft
mist

TAF: VELP 090800Z 0909/0918 03003KT 5000 HZ SCT020 BECMG 0912/0915 3000 BR SCT100

Weather observations and forecasts of more than 4000 airports (METAR and TAF reports).

The available stations are represented by yellow and red dots on the map.

Hover mouse over dot to see the name of the station.

Then click to see weather observations and forecasts.

To change the map : click on the green buttons with a black cross to zoom in, on the green button with a dash to zoom out, or on the green arrows for adjacent maps.


METAR-TAF: